sensor_id;sensor_type;location;lat;lon;timestamp;temperature;humidity
8709;DHT22;4391;48.678;9.280;2024-03-08T00:01:36;1.60;99.90
8709;DHT22;4391;48.678;9.280;2024-03-08T00:04:04;1.60;99.90
8709;DHT22;4391;48.678;9.280;2024-03-08T00:06:33;1.60;99.90
8709;DHT22;4391;48.678;9.280;2024-03-08T00:09:00;1.60;99.90
8709;DHT22;4391;48.678;9.280;2024-03-08T00:11:26;1.60;99.90
8709;DHT22;4391;48.678;9.280;2024-03-08T00:13:53;1.50;99.90
8709;DHT22;4391;48.678;9.280;2024-03-08T00:16:20;1.40;99.90
8709;DHT22;4391;48.678;9.280;2024-03-08T00:18:48;1.40;99.90
8709;DHT22;4391;48.678;9.280;2024-03-08T00:21:15;1.40;99.90
8709;DHT22;4391;48.678;9.280;2024-03-08T00:23:44;1.30;99.90
8709;DHT22;4391;48.678;9.280;2024-03-08T00:26:11;1.30;99.90
8709;DHT22;4391;48.678;9.280;2024-03-08T00:28:38;1.30;99.90
8709;DHT22;4391;48.678;9.280;2024-03-08T00:31:04;1.40;99.90
8709;DHT22;4391;48.678;9.280;2024-03-08T00:33:32;1.40;99.90
8709;DHT22;4391;48.678;9.280;2024-03-08T00:35:59;1.40;99.90
8709;DHT22;4391;48.678;9.280;2024-03-08T00:38:26;1.40;99.90
8709;DHT22;4391;48.678;9.280;2024-03-08T00:40:54;1.40;99.90
8709;DHT22;4391;48.678;9.280;2024-03-08T00:43:22;1.40;99.90
8709;DHT22;4391;48.678;9.280;2024-03-08T00:45:49;1.40;99.90
8709;DHT22;4391;48.678;9.280;2024-03-08T00:48:15;1.40;99.60
8709;DHT22;4391;48.678;9.280;2024-03-08T00:50:42;1.40;99.40
8709;DHT22;4391;48.678;9.280;2024-03-08T00:53:11;1.50;99.90
8709;DHT22;4391;48.678;9.280;2024-03-08T00:55:38;1.40;95.60
8709;DHT22;4391;48.678;9.280;2024-03-08T00:58:06;1.50;95.50
8709;DHT22;4391;48.678;9.280;2024-03-08T01:00:34;1.50;91.40
8709;DHT22;4391;48.678;9.280;2024-03-08T01:03:01;1.50;89.30
8709;DHT22;4391;48.678;9.280;2024-03-08T01:05:29;1.40;90.60
8709;DHT22;4391;48.678;9.280;2024-03-08T01:07:55;1.40;92.30
8709;DHT22;4391;48.678;9.280;2024-03-08T01:10:22;1.40;90.50
8709;DHT22;4391;48.678;9.280;2024-03-08T01:12:49;1.40;94.80
8709;DHT22;4391;48.678;9.280;2024-03-08T01:15:17;1.40;93.00
8709;DHT22;4391;48.678;9.280;2024-03-08T01:17:45;1.40;90.70
8709;DHT22;4391;48.678;9.280;2024-03-08T01:20:12;1.50;84.20
8709;DHT22;4391;48.678;9.280;2024-03-08T01:22:38;1.50;78.30
8709;DHT22;4391;48.678;9.280;2024-03-08T01:25:06;1.40;83.20
8709;DHT22;4391;48.678;9.280;2024-03-08T01:27:34;1.40;91.00
8709;DHT22;4391;48.678;9.280;2024-03-08T01:30:02;1.40;81.10
8709;DHT22;4391;48.678;9.280;2024-03-08T01:32:31;1.40;82.70
8709;DHT22;4391;48.678;9.280;2024-03-08T01:34:59;1.30;89.50
8709;DHT22;4391;48.678;9.280;2024-03-08T01:37:25;1.30;95.60
8709;DHT22;4391;48.678;9.280;2024-03-08T01:39:52;1.30;95.40
8709;DHT22;4391;48.678;9.280;2024-03-08T01:42:19;1.30;90.50
8709;DHT22;4391;48.678;9.280;2024-03-08T01:44:47;1.30;91.00
8709;DHT22;4391;48.678;9.280;2024-03-08T01:47:14;1.30;91.40
8709;DHT22;4391;48.678;9.280;2024-03-08T01:49:44;1.20;87.60
8709;DHT22;4391;48.678;9.280;2024-03-08T01:52:11;1.20;91.20
8709;DHT22;4391;48.678;9.280;2024-03-08T01:54:38;1.20;86.90
8709;DHT22;4391;48.678;9.280;2024-03-08T01:57:06;1.10;91.70
8709;DHT22;4391;48.678;9.280;2024-03-08T01:59:33;1.10;91.30
8709;DHT22;4391;48.678;9.280;2024-03-08T02:02:01;1.10;93.70
8709;DHT22;4391;48.678;9.280;2024-03-08T02:04:28;1.00;92.20
8709;DHT22;4391;48.678;9.280;2024-03-08T02:06:57;1.00;91.90
8709;DHT22;4391;48.678;9.280;2024-03-08T02:09:24;1.00;91.70
8709;DHT22;4391;48.678;9.280;2024-03-08T02:11:51;1.00;92.30
8709;DHT22;4391;48.678;9.280;2024-03-08T02:14:20;1.00;93.30
8709;DHT22;4391;48.678;9.280;2024-03-08T02:16:47;1.00;86.10
8709;DHT22;4391;48.678;9.280;2024-03-08T02:19:13;0.90;79.90
8709;DHT22;4391;48.678;9.280;2024-03-08T02:21:42;0.90;79.60
8709;DHT22;4391;48.678;9.280;2024-03-08T02:24:09;0.90;79.40
8709;DHT22;4391;48.678;9.280;2024-03-08T02:26:36;0.80;75.60
8709;DHT22;4391;48.678;9.280;2024-03-08T02:29:03;0.80;84.90
8709;DHT22;4391;48.678;9.280;2024-03-08T02:31:30;0.80;80.20
8709;DHT22;4391;48.678;9.280;2024-03-08T02:33:57;0.70;82.70
8709;DHT22;4391;48.678;9.280;2024-03-08T02:36:25;0.70;87.40
8709;DHT22;4391;48.678;9.280;2024-03-08T02:38:53;0.70;92.10
8709;DHT22;4391;48.678;9.280;2024-03-08T02:41:21;0.70;90.00
8709;DHT22;4391;48.678;9.280;2024-03-08T02:43:48;0.70;90.10
8709;DHT22;4391;48.678;9.280;2024-03-08T02:46:16;0.60;83.80
8709;DHT22;4391;48.678;9.280;2024-03-08T02:48:42;0.50;91.60
8709;DHT22;4391;48.678;9.280;2024-03-08T02:51:09;0.60;97.10
8709;DHT22;4391;48.678;9.280;2024-03-08T02:53:37;0.50;85.80
8709;DHT22;4391;48.678;9.280;2024-03-08T02:56:05;0.50;91.20
8709;DHT22;4391;48.678;9.280;2024-03-08T02:58:34;0.40;95.20
8709;DHT22;4391;48.678;9.280;2024-03-08T03:01:01;0.40;96.40
8709;DHT22;4391;48.678;9.280;2024-03-08T03:03:28;0.40;97.70
8709;DHT22;4391;48.678;9.280;2024-03-08T03:05:54;0.40;96.30
8709;DHT22;4391;48.678;9.280;2024-03-08T03:08:21;0.30;94.40
8709;DHT22;4391;48.678;9.280;2024-03-08T03:10:49;0.20;97.70
8709;DHT22;4391;48.678;9.280;2024-03-08T03:13:17;0.20;99.60
8709;DHT22;4391;48.678;9.280;2024-03-08T03:15:46;0.10;99.90
8709;DHT22;4391;48.678;9.280;2024-03-08T03:18:13;0.10;99.90
8709;DHT22;4391;48.678;9.280;2024-03-08T03:20:41;0.20;99.90
8709;DHT22;4391;48.678;9.280;2024-03-08T03:23:08;0.10;99.90
8709;DHT22;4391;48.678;9.280;2024-03-08T03:25:39;0.20;99.90
8709;DHT22;4391;48.678;9.280;2024-03-08T03:28:07;0.10;99.90
8709;DHT22;4391;48.678;9.280;2024-03-08T03:30:37;0.10;99.90
8709;DHT22;4391;48.678;9.280;2024-03-08T03:33:04;0.00;99.90
8709;DHT22;4391;48.678;9.280;2024-03-08T03:35:32;-0.10;99.90
8709;DHT22;4391;48.678;9.280;2024-03-08T03:37:59;-0.20;99.90
8709;DHT22;4391;48.678;9.280;2024-03-08T03:40:32;-0.20;99.90
8709;DHT22;4391;48.678;9.280;2024-03-08T03:42:59;-0.30;99.90
8709;DHT22;4391;48.678;9.280;2024-03-08T03:45:26;-0.30;99.90
8709;DHT22;4391;48.678;9.280;2024-03-08T03:47:55;-0.40;99.90
8709;DHT22;4391;48.678;9.280;2024-03-08T03:50:22;-0.30;99.90
8709;DHT22;4391;48.678;9.280;2024-03-08T03:52:49;-0.20;99.90
8709;DHT22;4391;48.678;9.280;2024-03-08T03:55:16;-0.20;99.90
8709;DHT22;4391;48.678;9.280;2024-03-08T03:57:43;-0.30;99.90
8709;DHT22;4391;48.678;9.280;2024-03-08T04:00:12;-0.40;99.90
8709;DHT22;4391;48.678;9.280;2024-03-08T04:02:39;-0.40;99.90
8709;DHT22;4391;48.678;9.280;2024-03-08T04:05:09;-0.50;99.90
8709;DHT22;4391;48.678;9.280;2024-03-08T04:07:36;-0.50;99.90
8709;DHT22;4391;48.678;9.280;2024-03-08T04:10:04;-0.60;99.90
8709;DHT22;4391;48.678;9.280;2024-03-08T04:12:32;-0.70;99.90
8709;DHT22;4391;48.678;9.280;2024-03-08T04:14:59;-0.80;99.90
8709;DHT22;4391;48.678;9.280;2024-03-08T04:17:26;-0.90;99.90
8709;DHT22;4391;48.678;9.280;2024-03-08T04:19:53;-0.90;99.90
8709;DHT22;4391;48.678;9.280;2024-03-08T04:22:21;-0.80;99.90
8709;DHT22;4391;48.678;9.280;2024-03-08T04:24:48;-0.80;99.90
8709;DHT22;4391;48.678;9.280;2024-03-08T04:27:14;-0.90;99.90
8709;DHT22;4391;48.678;9.280;2024-03-08T04:29:41;-0.90;99.90
8709;DHT22;4391;48.678;9.280;2024-03-08T04:32:09;-1.00;99.90
8709;DHT22;4391;48.678;9.280;2024-03-08T04:34:36;-1.10;99.90
8709;DHT22;4391;48.678;9.280;2024-03-08T04:37:03;-1.10;99.90
8709;DHT22;4391;48.678;9.280;2024-03-08T04:39:32;-1.10;99.90
8709;DHT22;4391;48.678;9.280;2024-03-08T04:42:01;-1.10;99.90
8709;DHT22;4391;48.678;9.280;2024-03-08T04:44:30;-1.10;99.90
8709;DHT22;4391;48.678;9.280;2024-03-08T04:46:57;-1.10;99.90
8709;DHT22;4391;48.678;9.280;2024-03-08T04:49:23;-1.00;99.90
8709;DHT22;4391;48.678;9.280;2024-03-08T04:51:50;-1.00;99.90
8709;DHT22;4391;48.678;9.280;2024-03-08T04:54:17;-1.10;99.90
8709;DHT22;4391;48.678;9.280;2024-03-08T04:56:45;-1.10;99.90
8709;DHT22;4391;48.678;9.280;2024-03-08T04:59:12;-1.10;99.90
8709;DHT22;4391;48.678;9.280;2024-03-08T05:01:39;-1.10;99.90
8709;DHT22;4391;48.678;9.280;2024-03-08T05:04:06;-1.00;99.90
8709;DHT22;4391;48.678;9.280;2024-03-08T05:06:33;-1.00;99.90
8709;DHT22;4391;48.678;9.280;2024-03-08T05:08:59;-1.00;99.90
8709;DHT22;4391;48.678;9.280;2024-03-08T05:11:28;-1.10;99.90
8709;DHT22;4391;48.678;9.280;2024-03-08T05:13:56;-1.20;99.90
8709;DHT22;4391;48.678;9.280;2024-03-08T05:16:24;-1.20;99.90
8709;DHT22;4391;48.678;9.280;2024-03-08T05:18:51;-1.20;99.90
8709;DHT22;4391;48.678;9.280;2024-03-08T05:21:18;-1.20;99.90
8709;DHT22;4391;48.678;9.280;2024-03-08T05:23:46;-1.20;99.90
8709;DHT22;4391;48.678;9.280;2024-03-08T05:26:13;-1.20;99.90
8709;DHT22;4391;48.678;9.280;2024-03-08T05:28:40;-1.30;99.90
8709;DHT22;4391;48.678;9.280;2024-03-08T05:31:08;-1.30;99.90
8709;DHT22;4391;48.678;9.280;2024-03-08T05:33:35;-1.30;99.90
8709;DHT22;4391;48.678;9.280;2024-03-08T05:36:02;-1.30;99.90
8709;DHT22;4391;48.678;9.280;2024-03-08T05:38:29;-1.30;99.90
8709;DHT22;4391;48.678;9.280;2024-03-08T05:40:56;-1.40;99.90
8709;DHT22;4391;48.678;9.280;2024-03-08T05:43:23;-1.40;99.90
8709;DHT22;4391;48.678;9.280;2024-03-08T05:45:50;-1.40;99.90
8709;DHT22;4391;48.678;9.280;2024-03-08T05:48:18;-1.40;99.90
8709;DHT22;4391;48.678;9.280;2024-03-08T05:50:45;-1.50;99.90
8709;DHT22;4391;48.678;9.280;2024-03-08T05:53:12;-1.50;99.90
8709;DHT22;4391;48.678;9.280;2024-03-08T05:55:40;-1.50;99.90
8709;DHT22;4391;48.678;9.280;2024-03-08T05:58:07;-1.50;99.90
8709;DHT22;4391;48.678;9.280;2024-03-08T06:00:34;-1.50;99.90
8709;DHT22;4391;48.678;9.280;2024-03-08T06:03:02;-1.40;99.90
8709;DHT22;4391;48.678;9.280;2024-03-08T06:05:30;-1.40;99.90
8709;DHT22;4391;48.678;9.280;2024-03-08T06:07:57;-1.30;99.90
8709;DHT22;4391;48.678;9.280;2024-03-08T06:10:24;-1.30;99.90
8709;DHT22;4391;48.678;9.280;2024-03-08T06:12:51;-1.30;99.90
8709;DHT22;4391;48.678;9.280;2024-03-08T06:15:18;-1.30;99.90
8709;DHT22;4391;48.678;9.280;2024-03-08T06:17:46;-1.40;99.90
8709;DHT22;4391;48.678;9.280;2024-03-08T06:20:13;-1.30;99.90
8709;DHT22;4391;48.678;9.280;2024-03-08T06:22:41;-1.20;99.90
8709;DHT22;4391;48.678;9.280;2024-03-08T06:25:10;-1.20;99.90
8709;DHT22;4391;48.678;9.280;2024-03-08T06:27:39;-1.10;99.90
8709;DHT22;4391;48.678;9.280;2024-03-08T06:30:08;-1.00;99.90
8709;DHT22;4391;48.678;9.280;2024-03-08T06:32:36;-0.90;99.90
8709;DHT22;4391;48.678;9.280;2024-03-08T06:35:03;-0.80;99.90
8709;DHT22;4391;48.678;9.280;2024-03-08T06:37:31;-0.70;99.90
8709;DHT22;4391;48.678;9.280;2024-03-08T06:40:03;-0.70;99.90
8709;DHT22;4391;48.678;9.280;2024-03-08T06:42:30;-0.60;99.90
8709;DHT22;4391;48.678;9.280;2024-03-08T06:44:59;-0.50;99.90
8709;DHT22;4391;48.678;9.280;2024-03-08T06:47:30;-0.40;99.90
8709;DHT22;4391;48.678;9.280;2024-03-08T06:50:00;-0.30;99.90
8709;DHT22;4391;48.678;9.280;2024-03-08T06:52:27;-0.10;99.90
8709;DHT22;4391;48.678;9.280;2024-03-08T06:54:53;0.00;99.90
8709;DHT22;4391;48.678;9.280;2024-03-08T06:57:22;0.20;99.90
8709;DHT22;4391;48.678;9.280;2024-03-08T06:59:49;0.30;99.90
8709;DHT22;4391;48.678;9.280;2024-03-08T07:02:17;0.40;99.90
8709;DHT22;4391;48.678;9.280;2024-03-08T07:04:44;0.50;99.90
8709;DHT22;4391;48.678;9.280;2024-03-08T07:07:11;0.70;99.90
8709;DHT22;4391;48.678;9.280;2024-03-08T07:09:38;0.90;99.90
8709;DHT22;4391;48.678;9.280;2024-03-08T07:12:06;1.10;99.90
8709;DHT22;4391;48.678;9.280;2024-03-08T07:14:37;1.20;99.90
8709;DHT22;4391;48.678;9.280;2024-03-08T07:17:06;1.40;99.90
8709;DHT22;4391;48.678;9.280;2024-03-08T07:19:34;1.60;99.90
8709;DHT22;4391;48.678;9.280;2024-03-08T07:22:02;1.80;99.90
8709;DHT22;4391;48.678;9.280;2024-03-08T07:24:29;1.90;99.90
8709;DHT22;4391;48.678;9.280;2024-03-08T07:27:05;2.00;99.90
8709;DHT22;4391;48.678;9.280;2024-03-08T07:29:32;2.10;99.90
8709;DHT22;4391;48.678;9.280;2024-03-08T07:32:00;2.20;99.90
8709;DHT22;4391;48.678;9.280;2024-03-08T07:34:43;2.30;91.50
8709;DHT22;4391;48.678;9.280;2024-03-08T07:37:10;2.40;14.60
8709;DHT22;4391;48.678;9.280;2024-03-08T07:39:37;2.60;1.00
8709;DHT22;4391;48.678;9.280;2024-03-08T07:42:05;2.70;1.00
8709;DHT22;4391;48.678;9.280;2024-03-08T07:44:32;2.80;1.00
8709;DHT22;4391;48.678;9.280;2024-03-08T07:47:00;2.90;1.00
8709;DHT22;4391;48.678;9.280;2024-03-08T07:49:27;3.00;1.00
8709;DHT22;4391;48.678;9.280;2024-03-08T07:51:54;3.00;1.00
8709;DHT22;4391;48.678;9.280;2024-03-08T07:54:21;3.10;99.90
8709;DHT22;4391;48.678;9.280;2024-03-08T07:56:48;3.20;1.00
8709;DHT22;4391;48.678;9.280;2024-03-08T07:59:16;3.40;1.00
8709;DHT22;4391;48.678;9.280;2024-03-08T08:01:43;3.50;1.00
8709;DHT22;4391;48.678;9.280;2024-03-08T08:04:11;3.60;99.90
8709;DHT22;4391;48.678;9.280;2024-03-08T08:06:41;3.70;99.90
8709;DHT22;4391;48.678;9.280;2024-03-08T08:09:08;3.80;24.70
8709;DHT22;4391;48.678;9.280;2024-03-08T08:11:39;3.80;99.90
8709;DHT22;4391;48.678;9.280;2024-03-08T08:14:08;3.90;1.00
8709;DHT22;4391;48.678;9.280;2024-03-08T08:16:36;4.10;99.90
8709;DHT22;4391;48.678;9.280;2024-03-08T08:19:03;4.20;1.00
8709;DHT22;4391;48.678;9.280;2024-03-08T08:21:34;4.30;99.90
8709;DHT22;4391;48.678;9.280;2024-03-08T08:24:02;4.40;1.00
8709;DHT22;4391;48.678;9.280;2024-03-08T08:26:29;4.50;1.00
8709;DHT22;4391;48.678;9.280;2024-03-08T08:28:56;4.60;77.00
8709;DHT22;4391;48.678;9.280;2024-03-08T08:31:23;4.60;99.90
8709;DHT22;4391;48.678;9.280;2024-03-08T08:33:50;4.70;99.90
8709;DHT22;4391;48.678;9.280;2024-03-08T08:36:22;4.80;1.00
8709;DHT22;4391;48.678;9.280;2024-03-08T08:38:50;4.90;99.90
8709;DHT22;4391;48.678;9.280;2024-03-08T08:41:19;4.80;1.00
8709;DHT22;4391;48.678;9.280;2024-03-08T08:43:47;4.70;1.00
8709;DHT22;4391;48.678;9.280;2024-03-08T08:46:16;4.70;1.00
8709;DHT22;4391;48.678;9.280;2024-03-08T08:48:43;4.70;99.90
8709;DHT22;4391;48.678;9.280;2024-03-08T08:51:11;4.80;1.00
8709;DHT22;4391;48.678;9.280;2024-03-08T08:53:38;4.70;99.90
8709;DHT22;4391;48.678;9.280;2024-03-08T08:56:09;4.80;99.90
8709;DHT22;4391;48.678;9.280;2024-03-08T08:58:38;4.70;1.00
8709;DHT22;4391;48.678;9.280;2024-03-08T09:01:05;4.70;99.90
8709;DHT22;4391;48.678;9.280;2024-03-08T09:03:33;4.70;1.00
8709;DHT22;4391;48.678;9.280;2024-03-08T09:06:00;4.60;1.00
8709;DHT22;4391;48.678;9.280;2024-03-08T09:08:28;4.60;99.90
8709;DHT22;4391;48.678;9.280;2024-03-08T09:10:55;4.60;1.00
8709;DHT22;4391;48.678;9.280;2024-03-08T09:13:23;4.70;99.90
8709;DHT22;4391;48.678;9.280;2024-03-08T09:15:50;4.70;8.50
8709;DHT22;4391;48.678;9.280;2024-03-08T09:18:18;4.70;1.00
8709;DHT22;4391;48.678;9.280;2024-03-08T09:20:46;4.80;1.00
8709;DHT22;4391;48.678;9.280;2024-03-08T09:23:13;4.90;99.90
8709;DHT22;4391;48.678;9.280;2024-03-08T09:25:42;5.00;1.00
8709;DHT22;4391;48.678;9.280;2024-03-08T09:28:09;5.10;24.40
8709;DHT22;4391;48.678;9.280;2024-03-08T09:30:38;5.10;1.00
8709;DHT22;4391;48.678;9.280;2024-03-08T09:33:05;5.20;99.90
8709;DHT22;4391;48.678;9.280;2024-03-08T09:35:33;5.30;99.90
8709;DHT22;4391;48.678;9.280;2024-03-08T09:37:59;5.40;99.90
8709;DHT22;4391;48.678;9.280;2024-03-08T09:40:26;5.40;99.90
8709;DHT22;4391;48.678;9.280;2024-03-08T09:42:53;5.40;99.90
8709;DHT22;4391;48.678;9.280;2024-03-08T09:45:21;5.50;1.00
8709;DHT22;4391;48.678;9.280;2024-03-08T09:47:50;5.40;1.00
8709;DHT22;4391;48.678;9.280;2024-03-08T09:50:18;5.20;1.00
8709;DHT22;4391;48.678;9.280;2024-03-08T09:52:47;5.20;1.00
8709;DHT22;4391;48.678;9.280;2024-03-08T09:55:16;5.30;1.00
8709;DHT22;4391;48.678;9.280;2024-03-08T09:57:48;5.50;1.00
8709;DHT22;4391;48.678;9.280;2024-03-08T10:00:40;5.50;1.00
8709;DHT22;4391;48.678;9.280;2024-03-08T10:03:08;5.80;1.00
8709;DHT22;4391;48.678;9.280;2024-03-08T10:05:36;5.90;99.90
8709;DHT22;4391;48.678;9.280;2024-03-08T10:08:05;6.10;99.90
8709;DHT22;4391;48.678;9.280;2024-03-08T10:10:33;6.30;99.90
8709;DHT22;4391;48.678;9.280;2024-03-08T10:13:01;6.30;99.90
8709;DHT22;4391;48.678;9.280;2024-03-08T10:15:28;6.40;99.90
8709;DHT22;4391;48.678;9.280;2024-03-08T10:17:56;6.50;99.90
8709;DHT22;4391;48.678;9.280;2024-03-08T10:20:24;6.50;99.90
8709;DHT22;4391;48.678;9.280;2024-03-08T10:22:52;6.60;99.90
8709;DHT22;4391;48.678;9.280;2024-03-08T10:25:19;6.40;99.90
8709;DHT22;4391;48.678;9.280;2024-03-08T10:27:46;6.50;99.90
8709;DHT22;4391;48.678;9.280;2024-03-08T10:30:15;6.70;96.00
8709;DHT22;4391;48.678;9.280;2024-03-08T10:32:45;6.70;38.10
8709;DHT22;4391;48.678;9.280;2024-03-08T10:35:12;6.90;40.40
8709;DHT22;4391;48.678;9.280;2024-03-08T10:37:47;7.00;1.00
8709;DHT22;4391;48.678;9.280;2024-03-08T10:40:16;7.20;1.00
8709;DHT22;4391;48.678;9.280;2024-03-08T10:42:52;7.30;1.00
8709;DHT22;4391;48.678;9.280;2024-03-08T10:45:30;7.40;1.00
8709;DHT22;4391;48.678;9.280;2024-03-08T10:48:07;7.40;1.00
8709;DHT22;4391;48.678;9.280;2024-03-08T10:50:35;7.70;1.00
8709;DHT22;4391;48.678;9.280;2024-03-08T10:53:05;8.60;1.00
8709;DHT22;4391;48.678;9.280;2024-03-08T10:55:33;9.30;1.00
8709;DHT22;4391;48.678;9.280;2024-03-08T10:58:00;9.90;1.00
8709;DHT22;4391;48.678;9.280;2024-03-08T11:00:27;10.60;1.00
8709;DHT22;4391;48.678;9.280;2024-03-08T11:02:54;11.00;1.00
8709;DHT22;4391;48.678;9.280;2024-03-08T11:05:32;11.00;1.00
8709;DHT22;4391;48.678;9.280;2024-03-08T11:08:08;11.10;1.00
8709;DHT22;4391;48.678;9.280;2024-03-08T11:10:47;11.10;99.90
8709;DHT22;4391;48.678;9.280;2024-03-08T11:13:34;11.10;99.90
8709;DHT22;4391;48.678;9.280;2024-03-08T11:16:02;12.20;99.90
8709;DHT22;4391;48.678;9.280;2024-03-08T11:18:32;13.70;99.90
8709;DHT22;4391;48.678;9.280;2024-03-08T11:21:02;15.00;99.90
8709;DHT22;4391;48.678;9.280;2024-03-08T11:23:34;16.20;99.90
8709;DHT22;4391;48.678;9.280;2024-03-08T11:26:01;17.20;99.90
8709;DHT22;4391;48.678;9.280;2024-03-08T11:28:33;17.70;99.90
8709;DHT22;4391;48.678;9.280;2024-03-08T11:31:24;18.20;99.90
8709;DHT22;4391;48.678;9.280;2024-03-08T11:33:51;18.60;99.90
8709;DHT22;4391;48.678;9.280;2024-03-08T11:36:21;19.20;99.90
8709;DHT22;4391;48.678;9.280;2024-03-08T11:38:50;18.30;99.90
8709;DHT22;4391;48.678;9.280;2024-03-08T11:41:19;17.50;99.90
8709;DHT22;4391;48.678;9.280;2024-03-08T11:43:46;18.50;99.90
8709;DHT22;4391;48.678;9.280;2024-03-08T11:46:14;19.00;99.90
8709;DHT22;4391;48.678;9.280;2024-03-08T11:48:42;19.20;99.90
8709;DHT22;4391;48.678;9.280;2024-03-08T11:51:11;19.10;99.90
8709;DHT22;4391;48.678;9.280;2024-03-08T11:53:39;19.70;99.90
8709;DHT22;4391;48.678;9.280;2024-03-08T11:56:08;20.40;99.90
8709;DHT22;4391;48.678;9.280;2024-03-08T11:58:35;21.10;99.90
8709;DHT22;4391;48.678;9.280;2024-03-08T12:01:03;21.10;99.90
8709;DHT22;4391;48.678;9.280;2024-03-08T12:03:31;21.00;99.90
8709;DHT22;4391;48.678;9.280;2024-03-08T12:05:59;21.50;99.90
8709;DHT22;4391;48.678;9.280;2024-03-08T12:08:27;22.20;99.90
8709;DHT22;4391;48.678;9.280;2024-03-08T12:10:55;21.20;99.90
8709;DHT22;4391;48.678;9.280;2024-03-08T12:13:26;21.40;99.90
8709;DHT22;4391;48.678;9.280;2024-03-08T12:15:56;22.20;99.90
8709;DHT22;4391;48.678;9.280;2024-03-08T12:18:24;22.50;99.90
8709;DHT22;4391;48.678;9.280;2024-03-08T12:20:51;22.60;99.90
8709;DHT22;4391;48.678;9.280;2024-03-08T12:23:18;22.70;99.90
8709;DHT22;4391;48.678;9.280;2024-03-08T12:25:44;23.00;99.90
8709;DHT22;4391;48.678;9.280;2024-03-08T12:28:13;23.40;99.90
8709;DHT22;4391;48.678;9.280;2024-03-08T12:30:46;23.40;99.90
8709;DHT22;4391;48.678;9.280;2024-03-08T12:33:14;23.80;99.90
8709;DHT22;4391;48.678;9.280;2024-03-08T12:35:50;24.00;99.90
8709;DHT22;4391;48.678;9.280;2024-03-08T12:38:20;24.30;99.90
8709;DHT22;4391;48.678;9.280;2024-03-08T12:40:50;24.70;99.90
8709;DHT22;4391;48.678;9.280;2024-03-08T12:43:17;24.90;99.90
8709;DHT22;4391;48.678;9.280;2024-03-08T12:45:46;25.00;99.90
8709;DHT22;4391;48.678;9.280;2024-03-08T12:48:13;25.40;99.90
8709;DHT22;4391;48.678;9.280;2024-03-08T12:50:40;25.50;99.90
8709;DHT22;4391;48.678;9.280;2024-03-08T12:53:09;24.40;99.90
8709;DHT22;4391;48.678;9.280;2024-03-08T12:55:36;24.50;99.90
8709;DHT22;4391;48.678;9.280;2024-03-08T12:58:04;24.80;99.90
8709;DHT22;4391;48.678;9.280;2024-03-08T13:00:32;24.40;99.90
8709;DHT22;4391;48.678;9.280;2024-03-08T13:03:03;24.60;99.90
8709;DHT22;4391;48.678;9.280;2024-03-08T13:05:32;24.40;99.90
8709;DHT22;4391;48.678;9.280;2024-03-08T13:07:58;24.50;99.90
8709;DHT22;4391;48.678;9.280;2024-03-08T13:10:25;24.50;99.90
8709;DHT22;4391;48.678;9.280;2024-03-08T13:12:52;25.00;99.90
8709;DHT22;4391;48.678;9.280;2024-03-08T13:15:20;25.40;99.90
8709;DHT22;4391;48.678;9.280;2024-03-08T13:17:47;25.60;99.90
8709;DHT22;4391;48.678;9.280;2024-03-08T13:20:15;25.70;99.90
8709;DHT22;4391;48.678;9.280;2024-03-08T13:22:45;25.50;99.90
8709;DHT22;4391;48.678;9.280;2024-03-08T13:25:12;25.10;99.90
8709;DHT22;4391;48.678;9.280;2024-03-08T13:27:40;25.30;99.90
8709;DHT22;4391;48.678;9.280;2024-03-08T13:30:08;25.50;99.90
8709;DHT22;4391;48.678;9.280;2024-03-08T13:32:39;25.20;99.90
8709;DHT22;4391;48.678;9.280;2024-03-08T13:35:07;25.60;99.90
8709;DHT22;4391;48.678;9.280;2024-03-08T13:37:39;25.80;99.90
8709;DHT22;4391;48.678;9.280;2024-03-08T13:40:07;25.80;99.90
8709;DHT22;4391;48.678;9.280;2024-03-08T13:42:39;26.50;99.90
8709;DHT22;4391;48.678;9.280;2024-03-08T13:45:08;25.50;99.90
8709;DHT22;4391;48.678;9.280;2024-03-08T13:47:36;25.40;99.90
8709;DHT22;4391;48.678;9.280;2024-03-08T13:50:05;24.90;99.90
8709;DHT22;4391;48.678;9.280;2024-03-08T13:52:32;24.80;99.90
8709;DHT22;4391;48.678;9.280;2024-03-08T13:55:01;25.00;99.90
8709;DHT22;4391;48.678;9.280;2024-03-08T13:57:28;25.20;99.90
8709;DHT22;4391;48.678;9.280;2024-03-08T13:59:55;25.60;99.90
8709;DHT22;4391;48.678;9.280;2024-03-08T14:02:21;25.20;99.90
8709;DHT22;4391;48.678;9.280;2024-03-08T14:04:53;25.30;99.90
8709;DHT22;4391;48.678;9.280;2024-03-08T14:07:20;25.40;99.90
8709;DHT22;4391;48.678;9.280;2024-03-08T14:09:48;24.80;99.90
8709;DHT22;4391;48.678;9.280;2024-03-08T14:12:19;24.90;99.90
8709;DHT22;4391;48.678;9.280;2024-03-08T14:14:46;24.30;99.90
8709;DHT22;4391;48.678;9.280;2024-03-08T14:17:13;23.70;99.90
8709;DHT22;4391;48.678;9.280;2024-03-08T14:19:42;22.50;99.90
8709;DHT22;4391;48.678;9.280;2024-03-08T14:22:10;21.90;99.90
8709;DHT22;4391;48.678;9.280;2024-03-08T14:24:39;22.20;99.90
8709;DHT22;4391;48.678;9.280;2024-03-08T14:27:07;22.30;99.90
8709;DHT22;4391;48.678;9.280;2024-03-08T14:29:36;22.50;99.90
8709;DHT22;4391;48.678;9.280;2024-03-08T14:32:04;23.10;99.90
8709;DHT22;4391;48.678;9.280;2024-03-08T14:34:31;23.90;99.90
8709;DHT22;4391;48.678;9.280;2024-03-08T14:36:59;23.80;99.90
8709;DHT22;4391;48.678;9.280;2024-03-08T14:39:27;23.90;99.90
8709;DHT22;4391;48.678;9.280;2024-03-08T14:41:54;24.00;99.90
8709;DHT22;4391;48.678;9.280;2024-03-08T14:44:23;23.40;99.90
8709;DHT22;4391;48.678;9.280;2024-03-08T14:46:53;23.10;99.90
8709;DHT22;4391;48.678;9.280;2024-03-08T14:49:20;22.60;99.90
8709;DHT22;4391;48.678;9.280;2024-03-08T14:51:47;22.70;99.90
8709;DHT22;4391;48.678;9.280;2024-03-08T14:54:14;23.00;99.90
8709;DHT22;4391;48.678;9.280;2024-03-08T14:56:41;23.40;99.90
8709;DHT22;4391;48.678;9.280;2024-03-08T14:59:09;24.00;99.90
8709;DHT22;4391;48.678;9.280;2024-03-08T15:01:36;24.30;99.90
8709;DHT22;4391;48.678;9.280;2024-03-08T15:04:04;24.30;99.90
8709;DHT22;4391;48.678;9.280;2024-03-08T15:06:35;24.00;99.90
8709;DHT22;4391;48.678;9.280;2024-03-08T15:09:03;23.90;99.90
8709;DHT22;4391;48.678;9.280;2024-03-08T15:11:36;23.80;99.90
8709;DHT22;4391;48.678;9.280;2024-03-08T15:14:04;23.50;99.90
8709;DHT22;4391;48.678;9.280;2024-03-08T15:16:36;23.10;99.90
8709;DHT22;4391;48.678;9.280;2024-03-08T15:19:04;22.60;99.90
8709;DHT22;4391;48.678;9.280;2024-03-08T15:21:31;22.50;99.90
8709;DHT22;4391;48.678;9.280;2024-03-08T15:23:59;22.60;99.90
8709;DHT22;4391;48.678;9.280;2024-03-08T15:26:28;22.30;99.90
8709;DHT22;4391;48.678;9.280;2024-03-08T15:28:55;22.70;99.90
8709;DHT22;4391;48.678;9.280;2024-03-08T15:31:22;22.40;99.90
8709;DHT22;4391;48.678;9.280;2024-03-08T15:33:50;22.50;99.90
8709;DHT22;4391;48.678;9.280;2024-03-08T15:36:27;22.50;99.90
8709;DHT22;4391;48.678;9.280;2024-03-08T15:38:56;22.10;99.90
8709;DHT22;4391;48.678;9.280;2024-03-08T15:41:23;21.70;99.90
8709;DHT22;4391;48.678;9.280;2024-03-08T15:43:52;21.70;99.90
8709;DHT22;4391;48.678;9.280;2024-03-08T15:46:20;21.50;99.90
8709;DHT22;4391;48.678;9.280;2024-03-08T15:48:48;21.00;99.90
8709;DHT22;4391;48.678;9.280;2024-03-08T15:51:17;20.60;99.90
8709;DHT22;4391;48.678;9.280;2024-03-08T15:53:46;20.40;99.90
8709;DHT22;4391;48.678;9.280;2024-03-08T15:56:18;20.00;99.90
8709;DHT22;4391;48.678;9.280;2024-03-08T15:58:45;19.80;99.90
8709;DHT22;4391;48.678;9.280;2024-03-08T16:01:12;19.70;99.90
8709;DHT22;4391;48.678;9.280;2024-03-08T16:03:41;19.40;99.90
8709;DHT22;4391;48.678;9.280;2024-03-08T16:06:10;19.00;99.90
8709;DHT22;4391;48.678;9.280;2024-03-08T16:08:37;18.80;99.90
8709;DHT22;4391;48.678;9.280;2024-03-08T16:11:06;18.90;99.90
8709;DHT22;4391;48.678;9.280;2024-03-08T16:13:34;18.60;99.90
8709;DHT22;4391;48.678;9.280;2024-03-08T16:16:04;18.60;99.90
8709;DHT22;4391;48.678;9.280;2024-03-08T16:18:31;18.20;99.90